Berg, Netherlands
Current Conditions -  °F | °C
As of 2:25 AM on Monday 24 Nov 2014 (Local Time) from EHBK Reporting Station
Broken Clouds Broken Clouds  
Wind Chill: 50°   Ceiling: 600
Heat Index: 50°   Visibility: 4mi
Dew Point: 48°   Wind: 12mph
Humidity: 94%   Direction: 320°NW
Pressure: 30.06"   Gusts: NA
Location:  50.86°N, 5.78°E
Report Text: EHBK 240125Z AUTO 32010KT 290V360 6000 FEW004 BKN006 BKN00710/09 Q1018
Loading
Personal Weather Stations






























Interactive Weather Map New forecast layout! Learn more

10-Day Weather Forecast

Advertisements
Track Severe Weather on mobile